METAR AND TAF INFORMATION
METAR FOR LIPQ
ADDS - METARS form results

(0444 UTC 18 January 2020)
Data provider http://aviationweather.gov/metar/data/
 
METAR text: LIPQ 180420Z AUTO 01002KT 4400 BR OVC180/// 03/03 Q1022
Conditions at: LIPQ (RONCHI LEGIONARI, IT) observed 0420 UTC 18 January 2020
Temperature: 3.0°C (37°F)
Dewpoint: 3.0°C (37°F) [RH = 100%]
Pressure (altimeter): 30.18 inches Hg (1022.0 mb)
Winds: from the N (10 degrees) at 2 MPH (2 knots; 1.0 m/s)
Visibility: 2.73 miles (4.39 km)
Ceiling: 18000 feet AGL
Clouds: overcast cloud deck at 18000 feet AGL
Weather: BR  (mist)

METAR text: LIPQ 180350Z AUTO 02003KT 4400 BR SCT082/// OVC180/// 03/03 Q1022
Conditions at: LIPQ (RONCHI LEGIONARI, IT) observed 0350 UTC 18 January 2020
Temperature: 3.0°C (37°F)
Dewpoint: 3.0°C (37°F) [RH = 100%]
Pressure (altimeter): 30.18 inches Hg (1022.0 mb)
Winds: from the NNE (20 degrees) at 3 MPH (3 knots; 1.5 m/s)
Visibility: 2.73 miles (4.39 km)
Ceiling: 18000 feet AGL
Clouds: scattered clouds at 8200 feet AGL
overcast cloud deck at 18000 feet AGL
Weather: BR  (mist)

Forecast for: LIPQ (RONCHI LEGIONARI, IT)
Text: TAF LIPQ 172300Z 1800/1824 VRB04KT 9999 SCT040
Forecast period: 0000 to 0900 UTC 18 January 2020
Forecast type: FROM: standard forecast or significant change
Winds: variable direction winds at 5 MPH (4 knots; 2.1 m/s)
Visibility: 6 or more miles 10+ km)
Ceiling: at least 12,000 feet AGL
Clouds: scattered clouds at 4000 feet AGL
Weather: no significant weather forecast for this period
Text: TEMPO 1806/1818 RA
Forecast period: 0600 to 1800 UTC 18 January 2020
Forecast type: TEMPORARY: The following changes expected for less than half the time period
Visibility: missing
Ceiling: unknown
Clouds: missing
Weather: RA  (moderate rain)
Text: BECMG 1809/1811 03010KT
Forecast period: 0900 UTC 18 January 2020 to 0000 UTC 19 January 2020
Forecast type: BECOMING: Conditions expected to become as follows by 1100 UTC 18 January 2020
Winds: from the NNE (30 degrees) at 12 MPH (10 knots; 5.1 m/s)
Visibility: 6 or more miles 10+ km)
Ceiling: at least 12,000 feet AGL
Clouds: scattered clouds at 4000 feet AGL
Weather: no significant weather forecast for this period

 AIRPORT MAP

 RUNWAY INFORMATION
Runway 09 Runway length 9843 ft Runway width 148 ft
Runway elevation 37 ft Runway displaced threshold 656 ft Runway heading 90
Runway 27 Runway length 9843 ft Runway width 148 ft
Runway elevation 36 ft Runway displaced threshold 0 ft Runway heading 270

 AIRPORT FREQUENCIES
Type APP Name APP Frequency 119.175 MHZ
Type TWR Name TWR Frequency 130.2 MHZ

 AIRPORT NEAR NAVIGATION AIDS
Type VOR-DME Name Ronchi Frequency 114200 KHZ
Type NDB Name Ronchi Frequency 396 KHZ



Powered by Virtual Airlines Manager [v2.6.2]